Mountain Iron, MN (55768)

12:03 AM CST on January 18, 2017 (GMT -0600)
UTAC Thunderbird Mine | | Change Station

Elev 1621 ft 47.48 °N, 92.54 °W | Updated 10 minutes ago

Mostly Cloudy
Mostly Cloudy
22.3 °F
Feels Like 13 °F
N
8.0
Wind Variable Wind from SSW
Gusts 11.0 mph

Today
High -- | Low -- °F
--% Chance of Precip.
Yesterday
High -- | Low -- °F
Precip. -- in
Pressure 29.82 in
Visibility 10.0 miles
Clouds Clear
Windchill 13 °F
Dew Point 17 °F
Humidity 79%
Rainfall 0.00 in
Snow Depth Not available.
7:51 AM 4:51 PM
Waning Gibbous, 66% visible
METAR KEVM 180554Z AUTO 22005KT 10SM CLR M05/M10 A2982 RMK AO2 T10531096 11021 21053 400161180
Pressure 29.82 in
Visibility 10.0 miles
Clouds Clear
Windchill 13 °F
Dew Point 17 °F
Humidity 79%
Rainfall 0.00 in
Snow Depth Not available.
7:51 AM 4:51 PM
Waning Gibbous, 66% visible
METAR KEVM 180554Z AUTO 22005KT 10SM CLR M05/M10 A2982 RMK AO2 T10531096 11021 21053 400161180

Get Your Daily Forecast Email!

Thanks for signing up!

Be on the lookout for a verification email in your inbox.

You'll start receiving the daily forecast at 8 AM.

×

10-Day Weather Forecast

Almanac

Astronomy

Jan. 18, 2017 Rise Set
Actual Time
Civil Twilight
Nautical Twilight
Astronomical Twilight
Moon
Length of Visible Light
Length of Day
Tomorrow will be .
, % of the Moon is Illuminated

Today's Extremes

State Highs State Lows

Community

WunderPhotos

Upload Photos

1,962,540 photos uploaded!

WunderBlog® & News

Nearby

Air Quality

  Air Quality AQ Index Pollutant
Not available.

Snow Depth

Station Depth Elevation

Earthquake Activity

City Distance Mag. Time & Date
Minimum magnitude displayed is 2.5.

Coastal Water Temperatures

Place Temperature

Stations

Nearby Weather Stations

Station Location Temp. Windchill Dew Point Humidity Wind Precip. Elev Updated Type
                   

Watches & Warnings

There are currently no watches in effect.